Armony — 5IM517 — position and weather

sailwx.info

Track history (hours):
 
Tides and Currents Weather Stations Pressure Air Temp Water Temp Dewpoint Dewpoint Depression Visibility Wind Speed Wind Dir Waves Ship Positions

Armony

Last reported at 2018-Feb-07 09:21 UTC. Time now 2018-Feb-22 03:34 UTC.
Position N 40°59' E 028°60'.
Warning: this ship's position is 14 days out of date.

Length 70 m; draft 3.5 m.

Type: Ship. MMSI: 677041700.

Date/timePositionNaut miles runAvg speedWind from/ knotsBaromVisibWave heightAir tempDewpointWater temp
2018-Feb-07 09:21N 40°59' E 028°60'3 5.8
2018-Feb-07 08:54N 40°56' E 029°00'4 7.1
2018-Feb-07 08:22N 40°53' E 029°01'3 7.7
2018-Feb-07 07:59N 40°51' E 029°04'4 7.8
2018-Feb-07 07:30N 40°51' E 029°09'2 2.1
2018-Feb-07 06:44N 40°52' E 029°11'0 0.1
2018-Feb-07 06:08N 40°52' E 029°11'0 0.0
2018-Feb-07 05:50N 40°52' E 029°11'0 0.0
2018-Feb-07 05:20N 40°52' E 029°11'0 0.0
2018-Feb-07 04:44N 40°52' E 029°11'0 0.0
2018-Feb-07 04:20N 40°52' E 029°11'0 0.0
2018-Feb-07 03:50N 40°52' E 029°11'0 0.0
2018-Feb-07 03:26N 40°52' E 029°11'0 0.0
2018-Feb-07 02:56N 40°52' E 029°11'0 0.0
2018-Feb-07 02:26N 40°52' E 029°11'0 0.0
2018-Feb-07 01:56N 40°52' E 029°11'0 0.0
2018-Feb-07 00:38N 40°52' E 029°11'0 0.1
2018-Feb-07 00:26N 40°52' E 029°11'0 0.0
2018-Feb-06 23:50N 40°52' E 029°11'0 0.0
2018-Feb-06 23:26N 40°52' E 029°11'0 0.0
2018-Feb-06 22:56N 40°52' E 029°11'0 0.0
2018-Feb-06 21:55N 40°52' E 029°11'0 0.1
2018-Feb-06 21:30N 40°52' E 029°11'3 6.0
2018-Feb-06 21:00N 40°49' E 029°08'4 7.5
2018-Feb-06 20:30N 40°46' E 029°12'5 9.2
2018-Feb-06 19:59N 40°45' E 029°18'4 8.5
2018-Feb-06 19:28N 40°44' E 029°23'6 9.5
2018-Feb-06 18:52N 40°45' E 029°31'1 2.3
2018-Feb-06 18:30N 40°46' E 029°32'0 0.0
2018-Feb-06 18:00N 40°46' E 029°32'0 0.0
2018-Feb-06 17:29N 40°46' E 029°32'0 0.0
2018-Feb-06 16:55N 40°46' E 029°32'0 0.0
2018-Feb-06 16:30N 40°46' E 029°32'0 0.0
2018-Feb-06 15:59N 40°46' E 029°32'0 0.0
2018-Feb-06 15:29N 40°46' E 029°32'0 0.0
2018-Feb-06 06:26N 40°46' E 029°32'0 0.0
2018-Feb-06 06:00N 40°46' E 029°32'0 0.0
2018-Feb-06 05:29N 40°46' E 029°32'0 0.0
2018-Feb-06 04:35N 40°46' E 029°32'0 0.0
2018-Feb-06 04:19N 40°46' E 029°32'0 0.0
2018-Feb-06 03:22N 40°46' E 029°32'0 0.0
2018-Feb-06 02:56N 40°46' E 029°32'0 0.0
2018-Feb-06 02:02N 40°46' E 029°32'0 0.1
2018-Feb-06 01:57N 40°46' E 029°32'0 0.0
2018-Feb-06 01:30N 40°46' E 029°32'0 0.0
2018-Feb-06 01:00N 40°46' E 029°32'0 0.0
2018-Feb-06 00:29N 40°46' E 029°32'0 0.0
2018-Feb-05 23:59N 40°46' E 029°32'0 0.0
2018-Feb-05 23:30N 40°46' E 029°32'0 0.0
2018-Feb-05 22:57N 40°46' E 029°32'0 0.0
2018-Feb-05 22:28N 40°46' E 029°32'0 0.0
2018-Feb-05 22:00N 40°46' E 029°32'0 0.0
2018-Feb-05 21:30N 40°46' E 029°32'0 0.0
2018-Feb-05 21:00N 40°46' E 029°32'0 0.0
2018-Feb-05 20:27N 40°46' E 029°32'0 0.0
2018-Feb-05 19:59N 40°46' E 029°32'0 0.0
2018-Feb-05 19:29N 40°46' E 029°32'0 0.0
2018-Feb-05 18:58N 40°46' E 029°32'0 0.0
2018-Feb-05 18:27N 40°46' E 029°32'0 0.0
2018-Feb-05 18:00N 40°46' E 029°32'0 0.0
2018-Feb-05 17:26N 40°46' E 029°32'0 0.0
2018-Feb-05 17:00N 40°46' E 029°32'0 0.0
2018-Feb-05 16:29N 40°46' E 029°32'4 0.7
2018-Feb-05 10:31N 40°46' E 029°26'0 0.0
2018-Feb-03 16:00N 40°46' E 029°26'0 0.1
2018-Feb-03 15:29N 40°46' E 029°26'0 0.0
2018-Feb-03 14:56N 40°46' E 029°26'3 5.0
2018-Feb-03 14:23N 40°44' E 029°23'2 6.0
2018-Feb-03 14:00N 40°44' E 029°20'3 5.5
2018-Feb-03 13:30N 40°44' E 029°17'5 8.7
2018-Feb-03 12:59N 40°46' E 029°11'2 4.0
2018-Feb-03 12:30N 40°47' E 029°09'0 0.5
2018-Feb-03 12:00N 40°47' E 029°09'4 7.3
2018-Feb-03 11:30N 40°48' E 029°04'4 8.3
2018-Feb-03 11:00N 40°50' E 028°59'4 8.3
2018-Feb-03 10:29N 40°54' E 028°56'  
2018-Jan-31 10:26N 44°08' E 028°39'0 0.0
2018-Jan-31 09:59N 44°08' E 028°39'0 0.0
2018-Jan-31 09:29N 44°08' E 028°39'0 0.0
2018-Jan-31 08:59N 44°08' E 028°39'0 0.0
2018-Jan-31 08:29N 44°08' E 028°39'0 0.0
2018-Jan-31 07:59N 44°08' E 028°39'0 0.0
2018-Jan-31 07:29N 44°08' E 028°39'0 0.0
2018-Jan-31 06:59N 44°08' E 028°39'0 0.1
2018-Jan-31 06:29N 44°08' E 028°39'0 0.1
2018-Jan-31 05:59N 44°08' E 028°39'0 0.1
2018-Jan-31 05:29N 44°08' E 028°39'0 0.0
2018-Jan-31 04:59N 44°08' E 028°39'0 0.0
2018-Jan-31 04:29N 44°08' E 028°39'0 0.0
2018-Jan-31 03:59N 44°08' E 028°39'0 0.0
2018-Jan-31 03:29N 44°08' E 028°39'0 0.0
2018-Jan-31 02:59N 44°08' E 028°39'0 0.0
2018-Jan-31 02:29N 44°08' E 028°39'0 0.0
2018-Jan-31 01:59N 44°08' E 028°39'0 0.0
2018-Jan-31 01:29N 44°08' E 028°39'0 0.0
2018-Jan-31 00:59N 44°08' E 028°39'0 0.0
2018-Jan-30 23:59N 44°08' E 028°39'0 0.0
2018-Jan-30 23:29N 44°08' E 028°39'0 0.0
2018-Jan-30 22:59N 44°08' E 028°39'0 0.0
2018-Jan-30 22:29N 44°08' E 028°39'0 0.0
2018-Jan-30 21:29N 44°08' E 028°39'0 0.0
2018-Jan-30 20:59N 44°08' E 028°39'0 0.0
2018-Jan-30 20:29N 44°08' E 028°39'0 0.0
2018-Jan-30 19:59N 44°08' E 028°39'0 0.0
2018-Jan-30 19:26N 44°08' E 028°39'0 0.0
2018-Jan-30 18:59N 44°08' E 028°39'0 0.0
2018-Jan-30 18:29N 44°08' E 028°39'0 0.0
2018-Jan-30 17:59N 44°08' E 028°39'0 0.0
2018-Jan-30 17:29N 44°08' E 028°39'0 0.0
2018-Jan-30 16:59N 44°08' E 028°39'0 0.0
2018-Jan-30 16:29N 44°08' E 028°39'0 0.0
2018-Jan-30 15:59N 44°08' E 028°39'0 0.0
2018-Jan-30 15:29N 44°08' E 028°39'0 0.0
2018-Jan-30 14:59N 44°08' E 028°39'0 0.0
2018-Jan-30 14:29N 44°08' E 028°39'0 0.0
2018-Jan-30 13:29N 44°08' E 028°39'0 0.0
2018-Jan-30 12:59N 44°08' E 028°39'0 0.0
2018-Jan-30 12:29N 44°08' E 028°39'0 0.0
2018-Jan-30 11:59N 44°08' E 028°39'0 0.0
2018-Jan-30 11:29N 44°08' E 028°39'0 0.0
2018-Jan-30 10:29N 44°08' E 028°39'0 0.0
2018-Jan-30 09:29N 44°08' E 028°39'0 0.0
2018-Jan-30 08:59N 44°08' E 028°39'0 0.0
2018-Jan-30 08:29N 44°08' E 028°39'0 0.0
2018-Jan-30 07:59N 44°08' E 028°39'0 0.0
2018-Jan-30 07:29N 44°08' E 028°39'0 0.0
2018-Jan-30 06:59N 44°08' E 028°39'0 0.0
2018-Jan-30 06:29N 44°08' E 028°39'0 0.1
2018-Jan-30 06:00N 44°08' E 028°39'0 0.0
2018-Jan-30 05:31N 44°08' E 028°39'1 2.2
2018-Jan-30 05:00N 44°09' E 028°40'2 4.9
2018-Jan-30 04:31N 44°07' E 028°42'3 5.8
2018-Jan-30 04:01N 44°04' E 028°45'4 7.3
2018-Jan-30 03:30N 44°02' E 028°48'3 5.6
2018-Jan-30 03:00N 43°59' E 028°50'3 6.9
2018-Jan-30 02:31N 43°56' E 028°50'4 7.4
2018-Jan-30 02:00N 43°52' E 028°51'4 7.5
2018-Jan-30 01:30N 43°48' E 028°52'4 7.7
2018-Jan-30 01:00N 43°45' E 028°52'4 7.7
2018-Jan-30 00:31N 43°41' E 028°53'4 7.9
2018-Jan-30 00:01N 43°37' E 028°53'4 8.1
2018-Jan-29 23:30N 43°33' E 028°53'4 8.0
2018-Jan-29 22:58N 43°28' E 028°53'151 8.6
2018-Jan-29 05:29N 40°57' E 028°60'4 4.3
2018-Jan-29 04:32N 40°53' E 029°01'0 3.6
2018-Jan-29 04:27N 40°53' E 029°01'2 4.7
2018-Jan-29 04:00N 40°51' E 029°02'3 5.6
2018-Jan-29 03:29N 40°49' E 029°05'0 0.9
2018-Jan-29 02:59N 40°49' E 029°05'0 0.9
2018-Jan-29 02:28N 40°48' E 029°05'0 1.0
2018-Jan-29 02:00N 40°48' E 029°05'1 1.0
2018-Jan-29 01:29N 40°47' E 029°04'0 1.0
2018-Jan-29 01:01N 40°47' E 029°04'1 1.0
2018-Jan-29 00:27N 40°46' E 029°04'0 1.0
2018-Jan-29 00:00N 40°46' E 029°04'0 1.0
2018-Jan-28 23:30N 40°45' E 029°03'0 0.3
2018-Jan-28 22:59N 40°45' E 029°03'3 6.0
2018-Jan-28 22:30N 40°48' E 029°04'0 0.5
2018-Jan-28 21:49N 40°48' E 029°04'0 0.7
2018-Jan-28 21:18N 40°47' E 029°04'0 0.7
2018-Jan-28 21:00N 40°47' E 029°04'0 0.5
2018-Jan-28 20:21N 40°47' E 029°04'0 0.2
2018-Jan-28 19:52N 40°47' E 029°04'1 3.4
2018-Jan-28 19:30N 40°47' E 029°06'5 9.8
2018-Jan-28 19:00N 40°46' E 029°12'4 9.1
2018-Jan-28 18:31N 40°45' E 029°18'5 9.0
2018-Jan-28 18:00N 40°45' E 029°24'4 8.9
2018-Jan-28 17:30N 40°45' E 029°30'  
Track history (hours):
 
Tides and Currents Weather Stations Pressure Air Temp Water Temp Dewpoint Dewpoint Depression Visibility Wind Speed Wind Dir Waves Ship Positions

Armony

Last reported at 2018-Feb-07 09:21 UTC. Time now 2018-Feb-22 03:34 UTC.
Position N 40°59' E 028°60'.
Warning: this ship's position is 14 days out of date.

Length 70 m; draft 3.5 m.

Type: Ship. MMSI: 677041700.

Date/timePositionNaut miles runAvg speedWind from/ knotsBaromVisibWave heightAir tempDewpointWater temp
2018-Feb-07 09:21N 40°59' E 028°60'3 5.8
2018-Feb-07 08:54N 40°56' E 029°00'4 7.1
2018-Feb-07 08:22N 40°53' E 029°01'3 7.7
2018-Feb-07 07:59N 40°51' E 029°04'4 7.8
2018-Feb-07 07:30N 40°51' E 029°09'2 2.1
2018-Feb-07 06:44N 40°52' E 029°11'0 0.1
2018-Feb-07 06:08N 40°52' E 029°11'0 0.0
2018-Feb-07 05:50N 40°52' E 029°11'0 0.0
2018-Feb-07 05:20N 40°52' E 029°11'0 0.0
2018-Feb-07 04:44N 40°52' E 029°11'0 0.0
2018-Feb-07 04:20N 40°52' E 029°11'0 0.0
2018-Feb-07 03:50N 40°52' E 029°11'0 0.0
2018-Feb-07 03:26N 40°52' E 029°11'0 0.0
2018-Feb-07 02:56N 40°52' E 029°11'0 0.0
2018-Feb-07 02:26N 40°52' E 029°11'0 0.0
2018-Feb-07 01:56N 40°52' E 029°11'0 0.0
2018-Feb-07 00:38N 40°52' E 029°11'0 0.1
2018-Feb-07 00:26N 40°52' E 029°11'0 0.0
2018-Feb-06 23:50N 40°52' E 029°11'0 0.0
2018-Feb-06 23:26N 40°52' E 029°11'0 0.0
2018-Feb-06 22:56N 40°52' E 029°11'0 0.0
2018-Feb-06 21:55N 40°52' E 029°11'0 0.1
2018-Feb-06 21:30N 40°52' E 029°11'3 6.0
2018-Feb-06 21:00N 40°49' E 029°08'4 7.5
2018-Feb-06 20:30N 40°46' E 029°12'5 9.2
2018-Feb-06 19:59N 40°45' E 029°18'4 8.5
2018-Feb-06 19:28N 40°44' E 029°23'6 9.5
2018-Feb-06 18:52N 40°45' E 029°31'1 2.3
2018-Feb-06 18:30N 40°46' E 029°32'0 0.0
2018-Feb-06 18:00N 40°46' E 029°32'0 0.0
2018-Feb-06 17:29N 40°46' E 029°32'0 0.0
2018-Feb-06 16:55N 40°46' E 029°32'0 0.0
2018-Feb-06 16:30N 40°46' E 029°32'0 0.0
2018-Feb-06 15:59N 40°46' E 029°32'0 0.0
2018-Feb-06 15:29N 40°46' E 029°32'0 0.0
2018-Feb-06 06:26N 40°46' E 029°32'0 0.0
2018-Feb-06 06:00N 40°46' E 029°32'0 0.0
2018-Feb-06 05:29N 40°46' E 029°32'0 0.0
2018-Feb-06 04:35N 40°46' E 029°32'0 0.0
2018-Feb-06 04:19N 40°46' E 029°32'0 0.0
2018-Feb-06 03:22N 40°46' E 029°32'0 0.0
2018-Feb-06 02:56N 40°46' E 029°32'0 0.0
2018-Feb-06 02:02N 40°46' E 029°32'0 0.1
2018-Feb-06 01:57N 40°46' E 029°32'0 0.0
2018-Feb-06 01:30N 40°46' E 029°32'0 0.0
2018-Feb-06 01:00N 40°46' E 029°32'0 0.0
2018-Feb-06 00:29N 40°46' E 029°32'0 0.0
2018-Feb-05 23:59N 40°46' E 029°32'0 0.0
2018-Feb-05 23:30N 40°46' E 029°32'0 0.0
2018-Feb-05 22:57N 40°46' E 029°32'0 0.0
2018-Feb-05 22:28N 40°46' E 029°32'0 0.0
2018-Feb-05 22:00N 40°46' E 029°32'0 0.0
2018-Feb-05 21:30N 40°46' E 029°32'0 0.0
2018-Feb-05 21:00N 40°46' E 029°32'0 0.0
2018-Feb-05 20:27N 40°46' E 029°32'0 0.0
2018-Feb-05 19:59N 40°46' E 029°32'0 0.0
2018-Feb-05 19:29N 40°46' E 029°32'0 0.0
2018-Feb-05 18:58N 40°46' E 029°32'0 0.0
2018-Feb-05 18:27N 40°46' E 029°32'0 0.0
2018-Feb-05 18:00N 40°46' E 029°32'0 0.0
2018-Feb-05 17:26N 40°46' E 029°32'0 0.0
2018-Feb-05 17:00N 40°46' E 029°32'0 0.0
2018-Feb-05 16:29N 40°46' E 029°32'4 0.7
2018-Feb-05 10:31N 40°46' E 029°26'0 0.0
2018-Feb-03 16:00N 40°46' E 029°26'0 0.1
2018-Feb-03 15:29N 40°46' E 029°26'0 0.0
2018-Feb-03 14:56N 40°46' E 029°26'3 5.0
2018-Feb-03 14:23N 40°44' E 029°23'2 6.0
2018-Feb-03 14:00N 40°44' E 029°20'3 5.5
2018-Feb-03 13:30N 40°44' E 029°17'5 8.7
2018-Feb-03 12:59N 40°46' E 029°11'2 4.0
2018-Feb-03 12:30N 40°47' E 029°09'0 0.5
2018-Feb-03 12:00N 40°47' E 029°09'4 7.3
2018-Feb-03 11:30N 40°48' E 029°04'4 8.3
2018-Feb-03 11:00N 40°50' E 028°59'4 8.3
2018-Feb-03 10:29N 40°54' E 028°56'  
2018-Jan-31 10:26N 44°08' E 028°39'0 0.0
2018-Jan-31 09:59N 44°08' E 028°39'0 0.0
2018-Jan-31 09:29N 44°08' E 028°39'0 0.0
2018-Jan-31 08:59N 44°08' E 028°39'0 0.0
2018-Jan-31 08:29N 44°08' E 028°39'0 0.0
2018-Jan-31 07:59N 44°08' E 028°39'0 0.0
2018-Jan-31 07:29N 44°08' E 028°39'0 0.0
2018-Jan-31 06:59N 44°08' E 028°39'0 0.1
2018-Jan-31 06:29N 44°08' E 028°39'0 0.1
2018-Jan-31 05:59N 44°08' E 028°39'0 0.1
2018-Jan-31 05:29N 44°08' E 028°39'0 0.0
2018-Jan-31 04:59N 44°08' E 028°39'0 0.0
2018-Jan-31 04:29N 44°08' E 028°39'0 0.0
2018-Jan-31 03:59N 44°08' E 028°39'0 0.0
2018-Jan-31 03:29N 44°08' E 028°39'0 0.0
2018-Jan-31 02:59N 44°08' E 028°39'0 0.0
2018-Jan-31 02:29N 44°08' E 028°39'0 0.0
2018-Jan-31 01:59N 44°08' E 028°39'0 0.0
2018-Jan-31 01:29N 44°08' E 028°39'0 0.0
2018-Jan-31 00:59N 44°08' E 028°39'0 0.0
2018-Jan-30 23:59N 44°08' E 028°39'0 0.0
2018-Jan-30 23:29N 44°08' E 028°39'0 0.0
2018-Jan-30 22:59N 44°08' E 028°39'0 0.0
2018-Jan-30 22:29N 44°08' E 028°39'0 0.0
2018-Jan-30 21:29N 44°08' E 028°39'0 0.0
2018-Jan-30 20:59N 44°08' E 028°39'0 0.0
2018-Jan-30 20:29N 44°08' E 028°39'0 0.0
2018-Jan-30 19:59N 44°08' E 028°39'0 0.0
2018-Jan-30 19:26N 44°08' E 028°39'0 0.0
2018-Jan-30 18:59N 44°08' E 028°39'0 0.0
2018-Jan-30 18:29N 44°08' E 028°39'0 0.0
2018-Jan-30 17:59N 44°08' E 028°39'0 0.0
2018-Jan-30 17:29N 44°08' E 028°39'0 0.0
2018-Jan-30 16:59N 44°08' E 028°39'0 0.0
2018-Jan-30 16:29N 44°08' E 028°39'0 0.0
2018-Jan-30 15:59N 44°08' E 028°39'0 0.0
2018-Jan-30 15:29N 44°08' E 028°39'0 0.0
2018-Jan-30 14:59N 44°08' E 028°39'0 0.0
2018-Jan-30 14:29N 44°08' E 028°39'0 0.0
2018-Jan-30 13:29N 44°08' E 028°39'0 0.0
2018-Jan-30 12:59N 44°08' E 028°39'0 0.0
2018-Jan-30 12:29N 44°08' E 028°39'0 0.0
2018-Jan-30 11:59N 44°08' E 028°39'0 0.0
2018-Jan-30 11:29N 44°08' E 028°39'0 0.0
2018-Jan-30 10:29N 44°08' E 028°39'0 0.0
2018-Jan-30 09:29N 44°08' E 028°39'0 0.0
2018-Jan-30 08:59N 44°08' E 028°39'0 0.0
2018-Jan-30 08:29N 44°08' E 028°39'0 0.0
2018-Jan-30 07:59N 44°08' E 028°39'0 0.0
2018-Jan-30 07:29N 44°08' E 028°39'0 0.0
2018-Jan-30 06:59N 44°08' E 028°39'0 0.0
2018-Jan-30 06:29N 44°08' E 028°39'0 0.1
2018-Jan-30 06:00N 44°08' E 028°39'0 0.0
2018-Jan-30 05:31N 44°08' E 028°39'1 2.2
2018-Jan-30 05:00N 44°09' E 028°40'2 4.9
2018-Jan-30 04:31N 44°07' E 028°42'3 5.8
2018-Jan-30 04:01N 44°04' E 028°45'4 7.3
2018-Jan-30 03:30N 44°02' E 028°48'3 5.6
2018-Jan-30 03:00N 43°59' E 028°50'3 6.9
2018-Jan-30 02:31N 43°56' E 028°50'4 7.4
2018-Jan-30 02:00N 43°52' E 028°51'4 7.5
2018-Jan-30 01:30N 43°48' E 028°52'4 7.7
2018-Jan-30 01:00N 43°45' E 028°52'4 7.7
2018-Jan-30 00:31N 43°41' E 028°53'4 7.9
2018-Jan-30 00:01N 43°37' E 028°53'4 8.1
2018-Jan-29 23:30N 43°33' E 028°53'4 8.0
2018-Jan-29 22:58N 43°28' E 028°53'151 8.6
2018-Jan-29 05:29N 40°57' E 028°60'4 4.3
2018-Jan-29 04:32N 40°53' E 029°01'0 3.6
2018-Jan-29 04:27N 40°53' E 029°01'2 4.7
2018-Jan-29 04:00N 40°51' E 029°02'3 5.6
2018-Jan-29 03:29N 40°49' E 029°05'0 0.9
2018-Jan-29 02:59N 40°49' E 029°05'0 0.9
2018-Jan-29 02:28N 40°48' E 029°05'0 1.0
2018-Jan-29 02:00N 40°48' E 029°05'1 1.0
2018-Jan-29 01:29N 40°47' E 029°04'0 1.0
2018-Jan-29 01:01N 40°47' E 029°04'1 1.0
2018-Jan-29 00:27N 40°46' E 029°04'0 1.0
2018-Jan-29 00:00N 40°46' E 029°04'0 1.0
2018-Jan-28 23:30N 40°45' E 029°03'0 0.3
2018-Jan-28 22:59N 40°45' E 029°03'3 6.0
2018-Jan-28 22:30N 40°48' E 029°04'0 0.5
2018-Jan-28 21:49N 40°48' E 029°04'0 0.7
2018-Jan-28 21:18N 40°47' E 029°04'0 0.7
2018-Jan-28 21:00N 40°47' E 029°04'0 0.5
2018-Jan-28 20:21N 40°47' E 029°04'0 0.2
2018-Jan-28 19:52N 40°47' E 029°04'1 3.4
2018-Jan-28 19:30N 40°47' E 029°06'5 9.8
2018-Jan-28 19:00N 40°46' E 029°12'4 9.1
2018-Jan-28 18:31N 40°45' E 029°18'5 9.0
2018-Jan-28 18:00N 40°45' E 029°24'4 8.9
2018-Jan-28 17:30N 40°45' E 029°30'  

Dump ship's entire track history